sensor_id;sensor_type;location;lat;lon;timestamp;P1;durP1;ratioP1;P2;durP2;ratioP2
22768;SDS011;13001;51.968;5.918;2022-12-17T00:01:45;616.03;;;570.87;;
22768;SDS011;13001;51.968;5.918;2022-12-17T00:04:31;615.63;;;569.80;;
22768;SDS011;13001;51.968;5.918;2022-12-17T00:07:16;618.90;;;572.97;;
22768;SDS011;13001;51.968;5.918;2022-12-17T00:10:01;641.47;;;592.80;;
22768;SDS011;13001;51.968;5.918;2022-12-17T00:12:46;603.70;;;558.60;;
22768;SDS011;13001;51.968;5.918;2022-12-17T00:15:31;624.57;;;577.43;;
22768;SDS011;13001;51.968;5.918;2022-12-17T00:18:17;619.43;;;573.20;;
22768;SDS011;13001;51.968;5.918;2022-12-17T00:21:02;627.20;;;579.90;;
22768;SDS011;13001;51.968;5.918;2022-12-17T00:23:48;627.77;;;580.00;;
22768;SDS011;13001;51.968;5.918;2022-12-17T00:26:34;638.43;;;590.00;;
22768;SDS011;13001;51.968;5.918;2022-12-17T00:29:20;665.87;;;614.63;;
22768;SDS011;13001;51.968;5.918;2022-12-17T00:32:05;650.83;;;600.83;;
22768;SDS011;13001;51.968;5.918;2022-12-17T00:34:51;665.13;;;614.30;;
22768;SDS011;13001;51.968;5.918;2022-12-17T00:37:36;672.00;;;620.00;;
22768;SDS011;13001;51.968;5.918;2022-12-17T00:40:21;669.90;;;618.77;;
22768;SDS011;13001;51.968;5.918;2022-12-17T00:43:10;676.43;;;624.07;;
22768;SDS011;13001;51.968;5.918;2022-12-17T00:45:56;644.10;;;594.70;;
22768;SDS011;13001;51.968;5.918;2022-12-17T00:48:42;660.47;;;609.73;;
22768;SDS011;13001;51.968;5.918;2022-12-17T00:51:28;676.87;;;624.97;;
22768;SDS011;13001;51.968;5.918;2022-12-17T00:54:13;663.30;;;612.03;;
22768;SDS011;13001;51.968;5.918;2022-12-17T00:56:58;657.80;;;606.93;;
22768;SDS011;13001;51.968;5.918;2022-12-17T00:59:44;662.00;;;611.07;;
22768;SDS011;13001;51.968;5.918;2022-12-17T01:02:29;666.73;;;615.37;;
22768;SDS011;13001;51.968;5.918;2022-12-17T01:05:14;664.80;;;612.70;;
22768;SDS011;13001;51.968;5.918;2022-12-17T01:08:06;669.40;;;617.40;;
22768;SDS011;13001;51.968;5.918;2022-12-17T01:10:52;670.70;;;618.70;;
22768;SDS011;13001;51.968;5.918;2022-12-17T01:13:39;671.43;;;618.97;;
22768;SDS011;13001;51.968;5.918;2022-12-17T01:16:24;691.73;;;638.07;;
22768;SDS011;13001;51.968;5.918;2022-12-17T01:19:09;697.23;;;642.97;;
22768;SDS011;13001;51.968;5.918;2022-12-17T01:21:54;702.83;;;647.70;;
22768;SDS011;13001;51.968;5.918;2022-12-17T01:24:40;701.20;;;645.83;;
22768;SDS011;13001;51.968;5.918;2022-12-17T01:27:25;705.53;;;650.00;;
22768;SDS011;13001;51.968;5.918;2022-12-17T01:29:59;708.40;;;652.93;;
22768;SDS011;13001;51.968;5.918;2022-12-17T01:32:44;712.60;;;656.53;;
22768;SDS011;13001;51.968;5.918;2022-12-17T01:35:29;685.40;;;631.30;;
22768;SDS011;13001;51.968;5.918;2022-12-17T01:38:16;704.53;;;649.40;;
22768;SDS011;13001;51.968;5.918;2022-12-17T01:41:02;725.20;;;668.57;;
22768;SDS011;13001;51.968;5.918;2022-12-17T01:43:48;708.33;;;652.43;;
22768;SDS011;13001;51.968;5.918;2022-12-17T01:46:34;727.07;;;670.07;;
22768;SDS011;13001;51.968;5.918;2022-12-17T01:49:20;700.03;;;645.20;;
22768;SDS011;13001;51.968;5.918;2022-12-17T01:52:06;724.63;;;667.33;;
22768;SDS011;13001;51.968;5.918;2022-12-17T01:54:52;721.70;;;664.73;;
22768;SDS011;13001;51.968;5.918;2022-12-17T01:57:38;707.50;;;652.27;;
22768;SDS011;13001;51.968;5.918;2022-12-17T02:00:23;734.23;;;676.67;;
22768;SDS011;13001;51.968;5.918;2022-12-17T02:03:12;733.50;;;676.00;;
22768;SDS011;13001;51.968;5.918;2022-12-17T02:06:15;705.40;;;650.17;;
22768;SDS011;13001;51.968;5.918;2022-12-17T02:09:06;727.77;;;671.23;;
22768;SDS011;13001;51.968;5.918;2022-12-17T02:12:03;735.50;;;678.30;;
22768;SDS011;13001;51.968;5.918;2022-12-17T02:14:51;715.57;;;659.40;;
22768;SDS011;13001;51.968;5.918;2022-12-17T02:17:35;708.83;;;653.77;;
22768;SDS011;13001;51.968;5.918;2022-12-17T02:20:21;714.33;;;659.07;;
22768;SDS011;13001;51.968;5.918;2022-12-17T02:25:56;717.63;;;662.20;;
22768;SDS011;13001;51.968;5.918;2022-12-17T02:28:42;714.67;;;659.37;;
22768;SDS011;13001;51.968;5.918;2022-12-17T02:31:29;708.13;;;653.67;;
22768;SDS011;13001;51.968;5.918;2022-12-17T02:34:15;716.83;;;661.57;;
22768;SDS011;13001;51.968;5.918;2022-12-17T02:37:00;707.20;;;652.73;;
22768;SDS011;13001;51.968;5.918;2022-12-17T02:39:45;713.57;;;658.83;;
22768;SDS011;13001;51.968;5.918;2022-12-17T02:42:31;705.93;;;652.10;;
22768;SDS011;13001;51.968;5.918;2022-12-17T02:45:17;705.23;;;651.00;;
22768;SDS011;13001;51.968;5.918;2022-12-17T02:48:03;706.73;;;652.30;;
22768;SDS011;13001;51.968;5.918;2022-12-17T02:50:49;702.13;;;647.73;;
22768;SDS011;13001;51.968;5.918;2022-12-17T02:53:39;704.17;;;649.53;;
22768;SDS011;13001;51.968;5.918;2022-12-17T02:56:21;711.47;;;656.57;;
22768;SDS011;13001;51.968;5.918;2022-12-17T02:59:06;695.43;;;642.03;;
22768;SDS011;13001;51.968;5.918;2022-12-17T03:01:52;697.87;;;644.00;;
22768;SDS011;13001;51.968;5.918;2022-12-17T03:04:37;707.63;;;653.33;;
22768;SDS011;13001;51.968;5.918;2022-12-17T03:07:22;696.07;;;642.33;;
22768;SDS011;13001;51.968;5.918;2022-12-17T03:10:08;697.50;;;644.40;;
22768;SDS011;13001;51.968;5.918;2022-12-17T03:12:53;702.13;;;648.50;;
22768;SDS011;13001;51.968;5.918;2022-12-17T03:15:38;699.67;;;646.07;;
22768;SDS011;13001;51.968;5.918;2022-12-17T03:18:23;701.70;;;647.77;;
22768;SDS011;13001;51.968;5.918;2022-12-17T03:21:08;708.47;;;654.10;;
22768;SDS011;13001;51.968;5.918;2022-12-17T03:23:54;711.00;;;656.30;;
22768;SDS011;13001;51.968;5.918;2022-12-17T03:26:39;706.00;;;651.50;;
22768;SDS011;13001;51.968;5.918;2022-12-17T03:29:24;702.03;;;648.03;;
22768;SDS011;13001;51.968;5.918;2022-12-17T03:32:09;708.10;;;653.63;;
22768;SDS011;13001;51.968;5.918;2022-12-17T03:34:55;703.93;;;649.67;;
22768;SDS011;13001;51.968;5.918;2022-12-17T03:37:40;716.47;;;661.03;;
22768;SDS011;13001;51.968;5.918;2022-12-17T03:40:25;714.23;;;659.17;;
22768;SDS011;13001;51.968;5.918;2022-12-17T03:43:11;716.00;;;660.97;;
22768;SDS011;13001;51.968;5.918;2022-12-17T03:45:56;703.73;;;649.73;;
22768;SDS011;13001;51.968;5.918;2022-12-17T03:48:42;718.50;;;663.23;;
22768;SDS011;13001;51.968;5.918;2022-12-17T03:51:27;712.67;;;657.83;;
22768;SDS011;13001;51.968;5.918;2022-12-17T03:54:12;712.07;;;657.33;;
22768;SDS011;13001;51.968;5.918;2022-12-17T03:56:58;710.93;;;656.40;;
22768;SDS011;13001;51.968;5.918;2022-12-17T03:59:43;705.47;;;651.20;;
22768;SDS011;13001;51.968;5.918;2022-12-17T04:02:28;700.77;;;646.50;;
22768;SDS011;13001;51.968;5.918;2022-12-17T04:05:13;691.07;;;638.43;;
22768;SDS011;13001;51.968;5.918;2022-12-17T04:07:58;702.43;;;648.77;;
22768;SDS011;13001;51.968;5.918;2022-12-17T04:10:44;701.17;;;647.60;;
22768;SDS011;13001;51.968;5.918;2022-12-17T04:13:29;694.87;;;641.73;;
22768;SDS011;13001;51.968;5.918;2022-12-17T04:16:14;693.90;;;640.37;;
22768;SDS011;13001;51.968;5.918;2022-12-17T04:18:59;659.93;;;610.00;;
22768;SDS011;13001;51.968;5.918;2022-12-17T04:21:44;696.83;;;643.50;;
22768;SDS011;13001;51.968;5.918;2022-12-17T04:24:30;695.30;;;641.90;;
22768;SDS011;13001;51.968;5.918;2022-12-17T04:27:15;696.53;;;643.13;;
22768;SDS011;13001;51.968;5.918;2022-12-17T04:30:00;707.13;;;652.93;;
22768;SDS011;13001;51.968;5.918;2022-12-17T04:32:45;627.23;;;582.67;;
22768;SDS011;13001;51.968;5.918;2022-12-17T04:35:32;360.27;;;336.68;;
22768;SDS011;13001;51.968;5.918;2022-12-17T04:38:17;221.37;;;203.42;;
22768;SDS011;13001;51.968;5.918;2022-12-17T04:41:03;342.90;;;318.48;;
22768;SDS011;13001;51.968;5.918;2022-12-17T04:43:49;362.42;;;337.45;;
22768;SDS011;13001;51.968;5.918;2022-12-17T04:46:17;428.95;;;397.45;;
22768;SDS011;13001;51.968;5.918;2022-12-17T04:49:03;180.37;;;165.57;;
22768;SDS011;13001;51.968;5.918;2022-12-17T04:51:48;505.07;;;467.50;;
22768;SDS011;13001;51.968;5.918;2022-12-17T04:54:33;571.03;;;529.67;;
22768;SDS011;13001;51.968;5.918;2022-12-17T04:57:18;441.98;;;408.95;;
22768;SDS011;13001;51.968;5.918;2022-12-17T05:00:04;410.27;;;380.00;;
22768;SDS011;13001;51.968;5.918;2022-12-17T05:02:49;466.70;;;432.02;;
22768;SDS011;13001;51.968;5.918;2022-12-17T05:05:35;436.52;;;403.05;;
22768;SDS011;13001;51.968;5.918;2022-12-17T05:08:20;407.70;;;377.10;;
22768;SDS011;13001;51.968;5.918;2022-12-17T05:11:05;413.18;;;382.35;;
22768;SDS011;13001;51.968;5.918;2022-12-17T05:13:51;402.75;;;373.02;;
22768;SDS011;13001;51.968;5.918;2022-12-17T05:16:36;423.87;;;392.67;;
22768;SDS011;13001;51.968;5.918;2022-12-17T05:19:22;431.37;;;399.25;;
22768;SDS011;13001;51.968;5.918;2022-12-17T05:22:07;433.50;;;401.00;;
22768;SDS011;13001;51.968;5.918;2022-12-17T05:24:52;416.37;;;385.10;;
22768;SDS011;13001;51.968;5.918;2022-12-17T05:27:39;421.00;;;389.87;;
22768;SDS011;13001;51.968;5.918;2022-12-17T05:30:24;413.40;;;383.57;;
22768;SDS011;13001;51.968;5.918;2022-12-17T05:33:09;408.38;;;378.67;;
22768;SDS011;13001;51.968;5.918;2022-12-17T05:35:57;391.95;;;363.92;;
22768;SDS011;13001;51.968;5.918;2022-12-17T05:38:42;385.00;;;356.20;;
22768;SDS011;13001;51.968;5.918;2022-12-17T05:41:27;387.50;;;358.53;;
22768;SDS011;13001;51.968;5.918;2022-12-17T05:44:12;404.27;;;373.62;;
22768;SDS011;13001;51.968;5.918;2022-12-17T05:46:57;416.77;;;385.68;;
22768;SDS011;13001;51.968;5.918;2022-12-17T05:49:43;397.45;;;368.15;;
22768;SDS011;13001;51.968;5.918;2022-12-17T05:52:28;373.87;;;345.70;;
22768;SDS011;13001;51.968;5.918;2022-12-17T05:55:14;390.38;;;360.93;;
22768;SDS011;13001;51.968;5.918;2022-12-17T05:58:06;402.23;;;372.02;;
22768;SDS011;13001;51.968;5.918;2022-12-17T06:00:55;391.63;;;363.37;;
22768;SDS011;13001;51.968;5.918;2022-12-17T06:03:41;383.40;;;355.32;;
22768;SDS011;13001;51.968;5.918;2022-12-17T06:06:26;406.07;;;375.37;;
22768;SDS011;13001;51.968;5.918;2022-12-17T06:09:11;388.07;;;359.05;;
22768;SDS011;13001;51.968;5.918;2022-12-17T06:11:57;388.00;;;359.20;;
22768;SDS011;13001;51.968;5.918;2022-12-17T06:14:41;379.52;;;351.27;;
22768;SDS011;13001;51.968;5.918;2022-12-17T06:17:27;426.10;;;394.18;;
22768;SDS011;13001;51.968;5.918;2022-12-17T06:20:12;407.38;;;377.18;;
22768;SDS011;13001;51.968;5.918;2022-12-17T06:23:02;398.23;;;367.85;;
22768;SDS011;13001;51.968;5.918;2022-12-17T06:25:44;377.27;;;349.40;;
22768;SDS011;13001;51.968;5.918;2022-12-17T06:28:13;365.48;;;338.10;;
22768;SDS011;13001;51.968;5.918;2022-12-17T06:30:58;360.13;;;333.75;;
22768;SDS011;13001;51.968;5.918;2022-12-17T06:33:43;378.45;;;349.77;;
22768;SDS011;13001;51.968;5.918;2022-12-17T06:36:29;379.57;;;350.62;;
22768;SDS011;13001;51.968;5.918;2022-12-17T06:39:14;338.02;;;313.75;;
22768;SDS011;13001;51.968;5.918;2022-12-17T06:41:59;367.90;;;340.55;;
22768;SDS011;13001;51.968;5.918;2022-12-17T06:44:44;400.70;;;370.60;;
22768;SDS011;13001;51.968;5.918;2022-12-17T06:47:30;357.05;;;330.45;;
22768;SDS011;13001;51.968;5.918;2022-12-17T06:50:15;351.25;;;324.90;;
22768;SDS011;13001;51.968;5.918;2022-12-17T06:53:01;356.83;;;330.43;;
22768;SDS011;13001;51.968;5.918;2022-12-17T06:55:47;384.98;;;356.07;;
22768;SDS011;13001;51.968;5.918;2022-12-17T06:58:32;354.50;;;327.70;;
22768;SDS011;13001;51.968;5.918;2022-12-17T07:01:17;385.07;;;356.20;;
22768;SDS011;13001;51.968;5.918;2022-12-17T07:04:03;360.68;;;333.95;;
22768;SDS011;13001;51.968;5.918;2022-12-17T07:06:48;383.07;;;354.63;;
22768;SDS011;13001;51.968;5.918;2022-12-17T07:09:33;346.85;;;321.45;;
22768;SDS011;13001;51.968;5.918;2022-12-17T07:12:18;394.00;;;364.25;;
22768;SDS011;13001;51.968;5.918;2022-12-17T07:15:04;367.68;;;340.80;;
22768;SDS011;13001;51.968;5.918;2022-12-17T07:17:53;392.70;;;363.40;;
22768;SDS011;13001;51.968;5.918;2022-12-17T07:20:38;354.48;;;328.42;;
22768;SDS011;13001;51.968;5.918;2022-12-17T07:23:23;358.23;;;332.02;;
22768;SDS011;13001;51.968;5.918;2022-12-17T07:26:08;380.37;;;352.38;;
22768;SDS011;13001;51.968;5.918;2022-12-17T07:28:54;396.10;;;366.70;;
22768;SDS011;13001;51.968;5.918;2022-12-17T07:31:39;347.05;;;321.70;;
22768;SDS011;13001;51.968;5.918;2022-12-17T07:34:24;367.00;;;340.00;;
22768;SDS011;13001;51.968;5.918;2022-12-17T07:37:10;338.87;;;313.98;;
22768;SDS011;13001;51.968;5.918;2022-12-17T07:39:55;327.35;;;303.60;;
22768;SDS011;13001;51.968;5.918;2022-12-17T07:42:40;353.13;;;327.43;;
22768;SDS011;13001;51.968;5.918;2022-12-17T07:45:25;365.60;;;339.15;;
22768;SDS011;13001;51.968;5.918;2022-12-17T07:48:11;369.02;;;341.98;;
22768;SDS011;13001;51.968;5.918;2022-12-17T07:50:56;359.50;;;333.10;;
22768;SDS011;13001;51.968;5.918;2022-12-17T07:53:41;361.37;;;334.63;;
22768;SDS011;13001;51.968;5.918;2022-12-17T07:56:26;357.02;;;330.35;;
22768;SDS011;13001;51.968;5.918;2022-12-17T07:59:12;357.97;;;331.63;;
22768;SDS011;13001;51.968;5.918;2022-12-17T08:01:57;361.07;;;333.97;;
22768;SDS011;13001;51.968;5.918;2022-12-17T08:04:42;357.30;;;331.30;;
22768;SDS011;13001;51.968;5.918;2022-12-17T08:07:29;357.20;;;330.60;;
22768;SDS011;13001;51.968;5.918;2022-12-17T08:10:14;366.98;;;340.18;;
22768;SDS011;13001;51.968;5.918;2022-12-17T08:13:01;362.50;;;335.68;;
22768;SDS011;13001;51.968;5.918;2022-12-17T08:15:47;353.48;;;326.90;;
22768;SDS011;13001;51.968;5.918;2022-12-17T08:18:32;360.38;;;334.00;;
22768;SDS011;13001;51.968;5.918;2022-12-17T08:21:18;369.80;;;342.02;;
22768;SDS011;13001;51.968;5.918;2022-12-17T08:24:03;365.27;;;338.65;;
22768;SDS011;13001;51.968;5.918;2022-12-17T08:26:49;385.32;;;356.75;;
22768;SDS011;13001;51.968;5.918;2022-12-17T08:29:34;375.90;;;347.58;;
22768;SDS011;13001;51.968;5.918;2022-12-17T08:32:19;371.43;;;343.80;;
22768;SDS011;13001;51.968;5.918;2022-12-17T08:35:05;356.70;;;329.20;;
22768;SDS011;13001;51.968;5.918;2022-12-17T08:37:51;402.62;;;371.60;;
22768;SDS011;13001;51.968;5.918;2022-12-17T08:40:36;367.18;;;339.52;;
22768;SDS011;13001;51.968;5.918;2022-12-17T08:43:21;461.62;;;426.55;;
22768;SDS011;13001;51.968;5.918;2022-12-17T08:46:06;397.02;;;367.13;;
22768;SDS011;13001;51.968;5.918;2022-12-17T08:48:51;470.90;;;435.40;;
22768;SDS011;13001;51.968;5.918;2022-12-17T08:51:36;444.97;;;411.00;;
22768;SDS011;13001;51.968;5.918;2022-12-17T08:54:22;551.48;;;507.15;;
22768;SDS011;13001;51.968;5.918;2022-12-17T08:57:07;421.57;;;390.25;;
22768;SDS011;13001;51.968;5.918;2022-12-17T08:59:52;466.95;;;431.20;;
22768;SDS011;13001;51.968;5.918;2022-12-17T09:02:38;467.22;;;431.05;;
22768;SDS011;13001;51.968;5.918;2022-12-17T09:05:23;463.00;;;427.37;;
22768;SDS011;13001;51.968;5.918;2022-12-17T09:08:08;451.63;;;416.70;;
22768;SDS011;13001;51.968;5.918;2022-12-17T09:10:53;439.87;;;406.32;;
22768;SDS011;13001;51.968;5.918;2022-12-17T09:13:39;472.13;;;435.97;;
22768;SDS011;13001;51.968;5.918;2022-12-17T09:16:24;418.67;;;387.02;;
22768;SDS011;13001;51.968;5.918;2022-12-17T09:19:09;436.73;;;403.10;;
22768;SDS011;13001;51.968;5.918;2022-12-17T09:21:55;428.35;;;394.65;;
22768;SDS011;13001;51.968;5.918;2022-12-17T09:24:40;423.70;;;390.52;;
22768;SDS011;13001;51.968;5.918;2022-12-17T09:27:26;465.17;;;428.32;;
22768;SDS011;13001;51.968;5.918;2022-12-17T09:30:12;438.60;;;404.98;;
22768;SDS011;13001;51.968;5.918;2022-12-17T09:32:57;488.55;;;450.32;;
22768;SDS011;13001;51.968;5.918;2022-12-17T09:35:42;516.38;;;475.68;;
22768;SDS011;13001;51.968;5.918;2022-12-17T09:38:27;475.32;;;438.00;;
22768;SDS011;13001;51.968;5.918;2022-12-17T09:41:31;505.63;;;466.55;;
22768;SDS011;13001;51.968;5.918;2022-12-17T09:44:19;481.80;;;444.50;;
22768;SDS011;13001;51.968;5.918;2022-12-17T09:47:06;523.62;;;484.75;;
22768;SDS011;13001;51.968;5.918;2022-12-17T09:49:49;411.85;;;380.42;;
22768;SDS011;13001;51.968;5.918;2022-12-17T09:52:36;432.00;;;399.45;;
22768;SDS011;13001;51.968;5.918;2022-12-17T09:55:24;493.02;;;456.87;;
22768;SDS011;13001;51.968;5.918;2022-12-17T09:58:28;457.98;;;423.90;;
22768;SDS011;13001;51.968;5.918;2022-12-17T10:00:59;456.67;;;423.32;;
22768;SDS011;13001;51.968;5.918;2022-12-17T10:03:44;454.27;;;420.45;;
22768;SDS011;13001;51.968;5.918;2022-12-17T10:06:30;449.58;;;416.08;;
22768;SDS011;13001;51.968;5.918;2022-12-17T10:09:17;438.42;;;405.50;;
22768;SDS011;13001;51.968;5.918;2022-12-17T10:12:13;500.18;;;462.82;;
22768;SDS011;13001;51.968;5.918;2022-12-17T10:14:55;498.67;;;461.17;;
22768;SDS011;13001;51.968;5.918;2022-12-17T10:17:40;463.85;;;429.38;;
22768;SDS011;13001;51.968;5.918;2022-12-17T10:23:23;442.25;;;409.33;;
22768;SDS011;13001;51.968;5.918;2022-12-17T10:26:08;420.32;;;388.82;;
22768;SDS011;13001;51.968;5.918;2022-12-17T10:29:09;408.53;;;378.40;;
22768;SDS011;13001;51.968;5.918;2022-12-17T10:31:50;397.15;;;367.80;;
22768;SDS011;13001;51.968;5.918;2022-12-17T10:34:37;394.70;;;365.65;;
22768;SDS011;13001;51.968;5.918;2022-12-17T10:37:22;388.82;;;360.25;;
22768;SDS011;13001;51.968;5.918;2022-12-17T10:40:16;389.38;;;360.02;;
22768;SDS011;13001;51.968;5.918;2022-12-17T10:42:57;376.20;;;347.80;;
22768;SDS011;13001;51.968;5.918;2022-12-17T10:45:42;379.00;;;350.38;;
22768;SDS011;13001;51.968;5.918;2022-12-17T10:48:29;386.05;;;356.38;;
22768;SDS011;13001;51.968;5.918;2022-12-17T10:51:19;377.15;;;348.43;;
22768;SDS011;13001;51.968;5.918;2022-12-17T10:54:09;385.35;;;355.52;;
22768;SDS011;13001;51.968;5.918;2022-12-17T10:56:54;374.20;;;344.60;;
22768;SDS011;13001;51.968;5.918;2022-12-17T10:59:41;373.23;;;343.40;;
22768;SDS011;13001;51.968;5.918;2022-12-17T11:02:27;401.65;;;369.00;;
22768;SDS011;13001;51.968;5.918;2022-12-17T11:05:21;402.32;;;369.77;;
22768;SDS011;13001;51.968;5.918;2022-12-17T11:08:02;420.30;;;386.55;;
22768;SDS011;13001;51.968;5.918;2022-12-17T11:10:48;426.77;;;392.00;;
22768;SDS011;13001;51.968;5.918;2022-12-17T11:13:35;431.07;;;396.23;;
22768;SDS011;13001;51.968;5.918;2022-12-17T11:16:40;436.35;;;401.27;;
22768;SDS011;13001;51.968;5.918;2022-12-17T11:22:22;420.45;;;387.27;;
22768;SDS011;13001;51.968;5.918;2022-12-17T11:31:08;415.28;;;381.87;;
22768;SDS011;13001;51.968;5.918;2022-12-17T11:33:55;425.83;;;391.40;;
22768;SDS011;13001;51.968;5.918;2022-12-17T11:36:41;421.77;;;388.52;;
22768;SDS011;13001;51.968;5.918;2022-12-17T11:39:35;413.55;;;381.20;;
22768;SDS011;13001;51.968;5.918;2022-12-17T11:42:23;419.97;;;385.98;;
22768;SDS011;13001;51.968;5.918;2022-12-17T11:45:27;413.80;;;379.98;;
22768;SDS011;13001;51.968;5.918;2022-12-17T11:48:18;416.55;;;382.62;;
22768;SDS011;13001;51.968;5.918;2022-12-17T11:50:59;417.42;;;383.52;;
22768;SDS011;13001;51.968;5.918;2022-12-17T11:56:44;451.65;;;413.63;;
22768;SDS011;13001;51.968;5.918;2022-12-17T11:59:32;470.60;;;430.95;;
22768;SDS011;13001;51.968;5.918;2022-12-17T12:02:23;490.25;;;448.58;;
22768;SDS011;13001;51.968;5.918;2022-12-17T12:08:20;523.28;;;477.25;;
22768;SDS011;13001;51.968;5.918;2022-12-17T12:11:10;526.55;;;480.87;;
22768;SDS011;13001;51.968;5.918;2022-12-17T12:13:54;524.85;;;478.08;;
22768;SDS011;13001;51.968;5.918;2022-12-17T12:16:44;532.40;;;484.98;;
22768;SDS011;13001;51.968;5.918;2022-12-17T12:20:15;538.15;;;490.70;;
22768;SDS011;13001;51.968;5.918;2022-12-17T12:22:20;535.15;;;487.70;;
22768;SDS011;13001;51.968;5.918;2022-12-17T12:25:08;546.08;;;497.17;;
22768;SDS011;13001;51.968;5.918;2022-12-17T12:28:00;555.75;;;506.37;;
22768;SDS011;13001;51.968;5.918;2022-12-17T12:30:54;569.20;;;519.23;;
22768;SDS011;13001;51.968;5.918;2022-12-17T12:36:22;564.67;;;514.02;;
22768;SDS011;13001;51.968;5.918;2022-12-17T12:39:09;564.67;;;513.48;;
22768;SDS011;13001;51.968;5.918;2022-12-17T12:47:56;560.97;;;510.13;;
22768;SDS011;13001;51.968;5.918;2022-12-17T12:50:44;558.00;;;507.90;;
22768;SDS011;13001;51.968;5.918;2022-12-17T12:53:28;407.65;;;374.40;;
22768;SDS011;13001;51.968;5.918;2022-12-17T12:56:26;288.23;;;265.85;;
22768;SDS011;13001;51.968;5.918;2022-12-17T12:59:25;389.07;;;359.77;;
22768;SDS011;13001;51.968;5.918;2022-12-17T13:02:25;389.85;;;360.27;;
22768;SDS011;13001;51.968;5.918;2022-12-17T13:05:21;364.27;;;336.20;;
22768;SDS011;13001;51.968;5.918;2022-12-17T13:08:01;375.50;;;346.90;;
22768;SDS011;13001;51.968;5.918;2022-12-17T13:10:30;407.50;;;376.25;;
22768;SDS011;13001;51.968;5.918;2022-12-17T13:12:59;431.97;;;397.10;;
22768;SDS011;13001;51.968;5.918;2022-12-17T13:15:31;532.55;;;485.32;;
22768;SDS011;13001;51.968;5.918;2022-12-17T13:17:57;552.33;;;503.02;;
22768;SDS011;13001;51.968;5.918;2022-12-17T13:20:26;560.27;;;510.13;;
22768;SDS011;13001;51.968;5.918;2022-12-17T13:23:04;328.65;;;303.52;;
22768;SDS011;13001;51.968;5.918;2022-12-17T13:25:22;329.50;;;304.02;;
22768;SDS011;13001;51.968;5.918;2022-12-17T13:27:49;495.63;;;452.20;;
22768;SDS011;13001;51.968;5.918;2022-12-17T13:35:42;440.62;;;407.58;;
22768;SDS011;13001;51.968;5.918;2022-12-17T13:38:26;476.90;;;441.08;;
22768;SDS011;13001;51.968;5.918;2022-12-17T13:43:30;505.40;;;461.58;;
22768;SDS011;13001;51.968;5.918;2022-12-17T13:45:56;535.20;;;488.25;;
22768;SDS011;13001;51.968;5.918;2022-12-17T13:48:24;539.85;;;492.27;;
22768;SDS011;13001;51.968;5.918;2022-12-17T13:50:53;546.45;;;497.73;;
22768;SDS011;13001;51.968;5.918;2022-12-17T13:53:21;562.70;;;512.33;;
22768;SDS011;13001;51.968;5.918;2022-12-17T13:55:49;561.30;;;510.37;;
22768;SDS011;13001;51.968;5.918;2022-12-17T13:58:25;571.00;;;519.53;;
22768;SDS011;13001;51.968;5.918;2022-12-17T14:00:48;566.50;;;515.97;;
22768;SDS011;13001;51.968;5.918;2022-12-17T14:03:19;585.95;;;533.25;;
22768;SDS011;13001;51.968;5.918;2022-12-17T14:05:44;386.37;;;356.98;;
22768;SDS011;13001;51.968;5.918;2022-12-17T14:08:17;231.13;;;211.90;;
22768;SDS011;13001;51.968;5.918;2022-12-17T14:10:49;340.37;;;313.98;;
22768;SDS011;13001;51.968;5.918;2022-12-17T14:13:15;345.93;;;319.15;;
22768;SDS011;13001;51.968;5.918;2022-12-17T14:15:44;387.45;;;357.43;;
22768;SDS011;13001;51.968;5.918;2022-12-17T14:18:13;539.05;;;492.12;;
22768;SDS011;13001;51.968;5.918;2022-12-17T14:20:40;343.25;;;317.77;;
22768;SDS011;13001;51.968;5.918;2022-12-17T14:23:20;318.77;;;293.73;;
22768;SDS011;13001;51.968;5.918;2022-12-17T14:25:43;264.85;;;243.48;;
22768;SDS011;13001;51.968;5.918;2022-12-17T14:28:27;325.65;;;301.35;;
22768;SDS011;13001;51.968;5.918;2022-12-17T14:30:52;315.77;;;291.57;;
22768;SDS011;13001;51.968;5.918;2022-12-17T14:33:27;304.23;;;280.42;;
22768;SDS011;13001;51.968;5.918;2022-12-17T14:35:56;309.50;;;285.40;;
22768;SDS011;13001;51.968;5.918;2022-12-17T14:38:24;217.60;;;199.15;;
22768;SDS011;13001;51.968;5.918;2022-12-17T14:40:52;206.20;;;188.35;;
22768;SDS011;13001;51.968;5.918;2022-12-17T14:43:26;340.55;;;314.42;;
22768;SDS011;13001;51.968;5.918;2022-12-17T14:45:50;312.45;;;287.77;;
22768;SDS011;13001;51.968;5.918;2022-12-17T14:48:35;352.15;;;325.00;;
22768;SDS011;13001;51.968;5.918;2022-12-17T14:51:26;335.53;;;310.30;;
22768;SDS011;13001;51.968;5.918;2022-12-17T14:53:49;378.80;;;350.35;;
22768;SDS011;13001;51.968;5.918;2022-12-17T14:56:20;487.12;;;449.35;;
22768;SDS011;13001;51.968;5.918;2022-12-17T14:58:48;508.07;;;465.90;;
22768;SDS011;13001;51.968;5.918;2022-12-17T15:01:16;359.43;;;332.10;;
22768;SDS011;13001;51.968;5.918;2022-12-17T15:03:45;348.65;;;322.63;;
22768;SDS011;13001;51.968;5.918;2022-12-17T15:06:15;254.70;;;234.77;;
22768;SDS011;13001;51.968;5.918;2022-12-17T15:08:42;224.18;;;206.02;;
22768;SDS011;13001;51.968;5.918;2022-12-17T15:11:12;255.70;;;235.80;;
22768;SDS011;13001;51.968;5.918;2022-12-17T15:13:40;204.32;;;186.90;;
22768;SDS011;13001;51.968;5.918;2022-12-17T15:16:07;242.93;;;223.97;;
22768;SDS011;13001;51.968;5.918;2022-12-17T15:18:36;277.10;;;256.05;;
22768;SDS011;13001;51.968;5.918;2022-12-17T15:21:05;276.55;;;255.65;;
22768;SDS011;13001;51.968;5.918;2022-12-17T15:23:32;263.62;;;243.07;;
22768;SDS011;13001;51.968;5.918;2022-12-17T15:25:59;330.77;;;306.33;;
22768;SDS011;13001;51.968;5.918;2022-12-17T15:28:26;314.57;;;291.38;;
22768;SDS011;13001;51.968;5.918;2022-12-17T15:30:54;280.55;;;259.70;;
22768;SDS011;13001;51.968;5.918;2022-12-17T15:33:21;272.90;;;252.40;;
22768;SDS011;13001;51.968;5.918;2022-12-17T15:35:49;253.45;;;234.12;;
22768;SDS011;13001;51.968;5.918;2022-12-17T15:38:16;283.68;;;261.92;;
22768;SDS011;13001;51.968;5.918;2022-12-17T15:40:43;273.10;;;252.47;;
22768;SDS011;13001;51.968;5.918;2022-12-17T15:43:11;264.50;;;243.48;;
22768;SDS011;13001;51.968;5.918;2022-12-17T15:45:39;259.10;;;239.57;;
22768;SDS011;13001;51.968;5.918;2022-12-17T15:48:07;287.10;;;265.80;;
22768;SDS011;13001;51.968;5.918;2022-12-17T15:50:35;272.65;;;252.18;;
22768;SDS011;13001;51.968;5.918;2022-12-17T15:53:02;270.33;;;249.88;;
22768;SDS011;13001;51.968;5.918;2022-12-17T15:55:30;282.07;;;261.77;;
22768;SDS011;13001;51.968;5.918;2022-12-17T15:57:57;282.40;;;261.20;;
22768;SDS011;13001;51.968;5.918;2022-12-17T16:00:24;310.25;;;287.57;;
22768;SDS011;13001;51.968;5.918;2022-12-17T16:02:55;310.35;;;288.23;;